createdAt,value
2018-07-13T00:00:02.667Z,18.31
2018-07-13T00:02:31.318Z,18.32
2018-07-13T00:05:00.050Z,18.32
2018-07-13T00:07:29.008Z,18.33
2018-07-13T00:09:58.030Z,18.33
2018-07-13T00:12:27.070Z,18.33
2018-07-13T00:15:07.578Z,18.32
2018-07-13T00:17:36.645Z,18.29
2018-07-13T00:20:05.918Z,18.28
2018-07-13T00:22:34.632Z,18.26
2018-07-13T00:25:03.358Z,18.27
2018-07-13T00:27:32.034Z,18.26
2018-07-13T00:30:00.692Z,18.25
2018-07-13T00:32:29.582Z,18.23
2018-07-13T00:34:59.036Z,18.23
2018-07-13T00:37:28.288Z,18.22
2018-07-13T00:39:57.765Z,18.23
2018-07-13T00:42:26.403Z,18.22
2018-07-13T00:44:55.696Z,18.20
2018-07-13T00:47:24.586Z,18.22
2018-07-13T00:49:53.584Z,18.21
2018-07-13T00:52:22.261Z,18.19
2018-07-13T00:54:51.032Z,18.17
2018-07-13T00:57:21.495Z,18.16
2018-07-13T00:59:50.521Z,18.16
2018-07-13T01:02:19.430Z,18.17
2018-07-13T01:04:48.536Z,18.15
2018-07-13T01:07:17.199Z,18.12
2018-07-13T01:09:46.446Z,18.09
2018-07-13T01:12:15.195Z,18.07
2018-07-13T01:14:43.903Z,18.06
2018-07-13T01:17:12.560Z,18.05
2018-07-13T01:19:41.430Z,18.08
2018-07-13T01:22:10.066Z,18.08
2018-07-13T01:24:39.060Z,18.05
2018-07-13T01:27:07.714Z,18.05
2018-07-13T01:29:36.769Z,18.03
2018-07-13T01:32:05.445Z,17.99
2018-07-13T01:34:34.429Z,17.98
2018-07-13T01:37:03.021Z,17.98
2018-07-13T01:39:31.677Z,17.96
2018-07-13T01:42:00.400Z,17.94
2018-07-13T01:44:29.705Z,17.93
2018-07-13T01:46:58.424Z,17.92
2018-07-13T01:49:27.721Z,17.92
2018-07-13T01:51:56.839Z,17.90
2018-07-13T01:54:25.914Z,17.85
2018-07-13T01:56:54.532Z,17.83
2018-07-13T01:59:23.480Z,17.78
2018-07-13T02:01:52.382Z,17.70
2018-07-13T02:04:21.333Z,17.69
2018-07-13T02:06:49.979Z,17.69
2018-07-13T02:09:18.690Z,17.67
2018-07-13T02:11:47.316Z,17.65
2018-07-13T02:14:16.450Z,17.61
2018-07-13T02:16:45.081Z,17.59
2018-07-13T02:19:14.713Z,17.58
2018-07-13T02:21:45.284Z,17.57
2018-07-13T02:24:14.789Z,17.58
2018-07-13T02:26:44.629Z,17.60
2018-07-13T02:29:14.266Z,17.61
2018-07-13T02:31:42.881Z,17.57
2018-07-13T02:34:11.569Z,17.51
2018-07-13T02:36:40.545Z,17.47
2018-07-13T02:39:10.217Z,17.41
2018-07-13T02:41:39.397Z,17.33
2018-07-13T02:44:08.361Z,17.31
2018-07-13T02:46:37.014Z,17.30
2018-07-13T02:49:06.522Z,17.34
2018-07-13T02:51:35.184Z,17.35
2018-07-13T02:54:03.901Z,17.34
2018-07-13T02:56:32.527Z,17.32
2018-07-13T02:59:01.148Z,17.30
2018-07-13T03:01:30.142Z,17.27
2018-07-13T03:03:59.069Z,17.21
2018-07-13T03:06:27.713Z,17.22
2018-07-13T03:08:56.779Z,17.22
2018-07-13T03:11:25.413Z,17.20
2018-07-13T03:13:54.073Z,17.21
2018-07-13T03:16:22.707Z,17.21
2018-07-13T03:18:51.681Z,17.13
2018-07-13T03:21:20.311Z,17.07
2018-07-13T03:23:49.043Z,17.04
2018-07-13T03:26:17.765Z,17.05
2018-07-13T03:28:46.403Z,17.07
2018-07-13T03:31:15.409Z,17.07
2018-07-13T03:33:44.054Z,17.04
2018-07-13T03:36:12.666Z,17.04
2018-07-13T03:38:41.670Z,16.97
2018-07-13T03:41:10.383Z,16.93
2018-07-13T03:43:39.415Z,16.94
2018-07-13T03:46:08.781Z,16.98
2018-07-13T03:48:37.416Z,16.98
2018-07-13T03:51:06.321Z,16.97
2018-07-13T03:53:34.986Z,17.00
2018-07-13T03:56:04.238Z,17.01
2018-07-13T03:58:33.234Z,17.02
2018-07-13T04:01:02.260Z,16.96
2018-07-13T04:03:30.909Z,16.93
2018-07-13T04:06:00.343Z,16.89
2018-07-13T04:08:29.028Z,16.91
2018-07-13T04:10:58.109Z,16.96
2018-07-13T04:13:26.741Z,16.97
2018-07-13T04:15:55.710Z,17.00
2018-07-13T04:18:25.438Z,16.99
2018-07-13T04:20:54.895Z,17.02
2018-07-13T04:23:25.169Z,16.98
2018-07-13T04:25:54.189Z,16.94
2018-07-13T04:28:23.359Z,16.96
2018-07-13T04:30:52.318Z,16.95
2018-07-13T04:33:21.278Z,16.94
2018-07-13T04:35:49.909Z,16.91
2018-07-13T04:38:18.602Z,16.94
2018-07-13T04:40:47.277Z,16.98
2018-07-13T04:43:16.429Z,17.00
2018-07-13T04:45:45.557Z,17.02
2018-07-13T04:48:14.296Z,17.07
2018-07-13T04:50:43.065Z,17.15
2018-07-13T04:53:11.732Z,17.20
2018-07-13T04:55:41.025Z,17.22
2018-07-13T04:58:09.772Z,17.26
2018-07-13T05:00:39.901Z,17.33
2018-07-13T05:03:09.939Z,17.42
2018-07-13T05:05:39.376Z,17.52
2018-07-13T05:08:14.560Z,17.61
2018-07-13T05:10:43.215Z,17.69
2018-07-13T05:13:11.971Z,17.73
2018-07-13T05:15:40.662Z,17.79
2018-07-13T05:18:09.754Z,17.83
2018-07-13T05:20:38.451Z,17.84
2018-07-13T05:23:08.051Z,17.82
2018-07-13T05:25:36.896Z,17.80
2018-07-13T05:28:06.368Z,17.84
2018-07-13T05:30:35.429Z,17.88
2018-07-13T05:33:04.216Z,17.94
2018-07-13T05:35:33.371Z,18.01
2018-07-13T05:38:02.178Z,18.06
2018-07-13T05:40:30.867Z,18.09
2018-07-13T05:42:59.586Z,18.15
2018-07-13T05:45:28.262Z,18.20
2018-07-13T05:47:57.066Z,18.21
2018-07-13T05:50:25.749Z,18.31
2018-07-13T05:52:54.422Z,18.34
2018-07-13T05:55:23.255Z,18.36
2018-07-13T05:57:52.003Z,18.30
2018-07-13T06:00:21.085Z,18.18
2018-07-13T06:02:50.136Z,18.31
2018-07-13T06:05:19.443Z,18.30
2018-07-13T06:07:48.367Z,18.30
2018-07-13T06:10:17.337Z,18.25
2018-07-13T06:12:47.456Z,18.35
2018-07-13T06:15:16.097Z,18.46
2018-07-13T06:17:45.025Z,18.68
2018-07-13T06:20:13.827Z,18.87
2018-07-13T06:22:42.822Z,18.85
2018-07-13T06:25:12.533Z,18.74
2018-07-13T06:27:41.342Z,18.58
2018-07-13T06:30:10.353Z,18.61
2018-07-13T06:32:39.765Z,18.60
2018-07-13T06:35:08.514Z,18.73
2018-07-13T06:37:38.514Z,18.86
2018-07-13T06:40:07.261Z,18.96
2018-07-13T06:42:35.912Z,19.05
2018-07-13T06:45:05.010Z,19.07
2018-07-13T06:47:33.984Z,19.09
2018-07-13T06:50:02.665Z,19.20
2018-07-13T06:52:31.377Z,19.15
2018-07-13T06:55:00.026Z,19.25
2018-07-13T06:57:39.866Z,19.42
2018-07-13T07:01:12.629Z,19.68
2018-07-13T07:04:51.005Z,19.83
2018-07-13T07:07:22.981Z,19.93
2018-07-13T07:09:55.318Z,20.20
2018-07-13T07:12:47.088Z,20.43
2018-07-13T07:15:15.965Z,20.37
2018-07-13T07:17:44.702Z,20.23
2018-07-13T07:20:14.329Z,20.13
2018-07-13T07:22:43.261Z,20.07
2018-07-13T07:25:11.894Z,20.04
2018-07-13T07:27:40.531Z,20.01
2018-07-13T07:30:09.263Z,19.93
2018-07-13T07:32:37.977Z,20.08
2018-07-13T07:35:06.979Z,20.19
2018-07-13T07:37:35.955Z,20.21
2018-07-13T07:40:04.930Z,20.14
2018-07-13T07:42:34.012Z,20.15
2018-07-13T07:45:03.139Z,20.08
2018-07-13T07:47:32.074Z,20.15
2018-07-13T07:50:00.721Z,20.07
2018-07-13T07:52:29.759Z,20.04
2018-07-13T07:54:58.489Z,20.00
2018-07-13T07:57:27.226Z,19.92
2018-07-13T07:59:55.895Z,19.83
2018-07-13T08:02:24.539Z,19.78
2018-07-13T08:04:53.185Z,19.69
2018-07-13T08:07:22.016Z,19.61
2018-07-13T08:09:50.663Z,19.54
2018-07-13T08:12:19.901Z,19.41
2018-07-13T08:14:48.808Z,19.18
2018-07-13T08:17:17.499Z,19.17
2018-07-13T08:19:46.386Z,19.12
2018-07-13T08:22:17.779Z,19.08
2018-07-13T08:24:47.170Z,19.11
2018-07-13T08:27:19.271Z,19.15
2018-07-13T08:29:48.474Z,19.19
2018-07-13T08:32:17.405Z,19.20
2018-07-13T08:34:46.565Z,19.26
2018-07-13T08:37:15.959Z,19.27
2018-07-13T08:39:44.823Z,19.35
2018-07-13T08:42:13.794Z,19.38
2018-07-13T08:44:42.482Z,19.44
2018-07-13T08:47:11.409Z,19.58
2018-07-13T08:49:40.428Z,19.55
2018-07-13T08:52:09.486Z,19.59
2018-07-13T08:54:38.197Z,19.64
2018-07-13T08:57:06.920Z,19.69
2018-07-13T08:59:35.699Z,19.65
2018-07-13T09:02:04.403Z,19.69
2018-07-13T09:04:33.791Z,19.71
2018-07-13T09:07:02.768Z,19.77
2018-07-13T09:09:31.781Z,19.80
2018-07-13T09:12:00.436Z,19.89
2018-07-13T09:14:29.130Z,19.97
2018-07-13T09:16:57.823Z,20.04
2018-07-13T09:19:26.491Z,20.14
2018-07-13T09:21:55.520Z,20.12
2018-07-13T09:24:24.210Z,20.11
2018-07-13T09:26:53.192Z,20.04
2018-07-13T09:29:22.127Z,20.05
2018-07-13T09:31:50.850Z,20.11
2018-07-13T09:34:19.871Z,20.14
2018-07-13T09:36:48.758Z,20.22
2018-07-13T09:39:17.595Z,20.28
2018-07-13T09:41:46.615Z,20.40
2018-07-13T09:44:15.317Z,20.42
2018-07-13T09:46:44.394Z,20.49
2018-07-13T09:49:12.980Z,20.51
2018-07-13T09:51:41.706Z,20.66
2018-07-13T09:54:10.437Z,20.80
2018-07-13T09:56:39.382Z,20.94
2018-07-13T09:59:08.391Z,21.07
2018-07-13T10:01:37.150Z,21.21
2018-07-13T10:04:06.009Z,21.41
2018-07-13T10:06:34.776Z,21.47
2018-07-13T10:09:03.668Z,21.47
2018-07-13T10:11:33.347Z,21.52
2018-07-13T10:14:02.401Z,21.55
2018-07-13T10:16:31.091Z,21.61
2018-07-13T10:18:59.851Z,21.67
2018-07-13T10:21:29.412Z,21.82
2018-07-13T10:23:58.176Z,21.99
2018-07-13T10:26:37.381Z,21.89
2018-07-13T10:29:09.732Z,21.89
2018-07-13T10:31:38.495Z,21.86
2018-07-13T10:34:07.927Z,21.78
2018-07-13T10:36:40.170Z,21.73
2018-07-13T10:39:09.748Z,21.72
2018-07-13T10:41:45.135Z,21.67
2018-07-13T10:44:14.942Z,21.71
2018-07-13T10:46:43.715Z,21.69
2018-07-13T10:49:12.733Z,21.72
2018-07-13T10:51:41.742Z,21.69
2018-07-13T10:54:10.832Z,21.65
2018-07-13T10:56:41.045Z,21.74
2018-07-13T10:59:10.142Z,21.76
2018-07-13T11:01:39.056Z,21.66
2018-07-13T11:04:07.842Z,21.66
2018-07-13T11:06:37.161Z,21.75
2018-07-13T11:09:07.140Z,21.82
2018-07-13T11:11:36.461Z,21.86
2018-07-13T11:14:05.248Z,21.96
2018-07-13T11:16:34.112Z,22.04
2018-07-13T11:19:02.752Z,22.06
2018-07-13T11:21:31.810Z,22.13
2018-07-13T11:24:00.465Z,22.18
2018-07-13T11:26:29.145Z,22.22
2018-07-13T11:28:57.778Z,22.34
2018-07-13T11:31:26.521Z,22.43
2018-07-13T11:33:55.146Z,22.56
2018-07-13T11:36:23.763Z,22.77
2018-07-13T11:38:52.834Z,22.98
2018-07-13T11:41:22.131Z,23.17
2018-07-13T11:43:50.925Z,23.31
2018-07-13T11:46:19.919Z,23.55
2018-07-13T11:48:48.804Z,23.78
2018-07-13T11:51:17.496Z,24.27
2018-07-13T11:53:46.415Z,24.55
2018-07-13T11:56:15.371Z,24.64
2018-07-13T11:58:44.006Z,24.80
2018-07-13T12:01:12.644Z,25.09
2018-07-13T12:03:41.740Z,25.88
2018-07-13T12:06:11.048Z,26.38
2018-07-13T12:08:40.010Z,27.56
2018-07-13T12:11:08.670Z,29.63
2018-07-13T12:13:37.443Z,30.61
2018-07-13T12:16:06.963Z,31.21
2018-07-13T12:18:36.015Z,32.51
2018-07-13T12:21:04.674Z,32.94
2018-07-13T12:23:33.366Z,32.21
2018-07-13T12:26:02.277Z,31.03
2018-07-13T12:28:30.940Z,30.67
2018-07-13T12:30:59.650Z,30.92
2018-07-13T12:33:28.691Z,31.34
2018-07-13T12:35:57.348Z,31.27
2018-07-13T12:38:26.449Z,32.85
2018-07-13T12:40:55.136Z,34.75
2018-07-13T12:43:23.825Z,36.99
2018-07-13T12:45:52.847Z,39.07
2018-07-13T12:48:21.500Z,40.27
2018-07-13T12:50:50.425Z,41.73
2018-07-13T12:53:19.779Z,42.59
2018-07-13T12:55:48.447Z,43.02
2018-07-13T12:58:17.665Z,43.62
2018-07-13T13:00:46.566Z,43.94
2018-07-13T13:03:15.279Z,44.39
2018-07-13T13:05:44.300Z,43.36
2018-07-13T13:08:12.971Z,43.83
2018-07-13T13:10:41.945Z,43.63
2018-07-13T13:13:10.990Z,43.79
2018-07-13T13:15:40.203Z,44.66
2018-07-13T13:18:09.171Z,44.89
2018-07-13T13:20:37.880Z,44.78
2018-07-13T13:23:07.559Z,45.33
2018-07-13T13:25:36.539Z,45.67
2018-07-13T13:28:08.866Z,44.13
2018-07-13T13:30:37.448Z,44.29
2018-07-13T13:33:06.917Z,44.53
2018-07-13T13:35:35.588Z,44.86
2018-07-13T13:38:04.303Z,45.00
2018-07-13T13:40:32.957Z,45.34
2018-07-13T13:43:01.634Z,44.68
2018-07-13T13:45:30.685Z,44.48
2018-07-13T13:47:59.350Z,44.90
2018-07-13T13:50:28.289Z,45.35
2018-07-13T13:52:56.984Z,45.22
2018-07-13T13:55:25.626Z,45.39
2018-07-13T13:57:54.964Z,45.43
2018-07-13T14:00:24.261Z,45.74
2018-07-13T14:02:53.304Z,45.90
2018-07-13T14:05:22.336Z,44.72
2018-07-13T14:07:50.999Z,43.40
2018-07-13T14:10:19.793Z,43.77
2018-07-13T14:12:49.058Z,43.85
2018-07-13T14:15:17.726Z,43.89
2018-07-13T14:17:47.019Z,43.36
2018-07-13T14:20:15.739Z,42.82
2018-07-13T14:22:44.380Z,42.09
2018-07-13T14:25:13.066Z,40.98
2018-07-13T14:27:41.881Z,39.85
2018-07-13T14:30:11.052Z,38.66
2018-07-13T14:32:39.710Z,37.22
2018-07-13T14:35:08.908Z,36.71
2018-07-13T14:37:37.851Z,36.22
2018-07-13T14:40:06.739Z,35.45
2018-07-13T14:42:35.768Z,34.83
2018-07-13T14:45:04.518Z,32.65
2018-07-13T14:47:33.153Z,32.44
2018-07-13T14:50:02.410Z,32.21
2018-07-13T14:52:31.065Z,31.76
2018-07-13T14:55:00.020Z,31.38
2018-07-13T14:57:28.675Z,30.94
2018-07-13T14:59:57.381Z,30.46
2018-07-13T15:02:26.350Z,30.21
2018-07-13T15:04:55.047Z,29.85
2018-07-13T15:07:24.945Z,29.42
2018-07-13T15:09:54.358Z,29.39
2018-07-13T15:12:23.172Z,29.12
2018-07-13T15:14:52.698Z,28.85
2018-07-13T15:17:21.624Z,28.79
2018-07-13T15:19:50.360Z,28.56
2018-07-13T15:22:19.000Z,28.48
2018-07-13T15:24:48.492Z,28.36
2018-07-13T15:27:17.187Z,28.14
2018-07-13T15:29:45.898Z,27.97
2018-07-13T15:32:14.743Z,27.91
2018-07-13T15:34:43.967Z,27.69
2018-07-13T15:37:13.240Z,27.73
2018-07-13T15:39:41.951Z,27.57
2018-07-13T15:42:11.709Z,27.51
2018-07-13T15:44:40.383Z,27.22
2018-07-13T15:47:09.126Z,27.31
2018-07-13T15:49:38.602Z,27.26
2018-07-13T15:52:07.362Z,27.19
2018-07-13T15:54:36.108Z,27.16
2018-07-13T15:57:06.415Z,27.08
2018-07-13T15:59:35.679Z,27.02
2018-07-13T16:02:05.000Z,27.10
2018-07-13T16:04:34.085Z,27.22
2018-07-13T16:07:03.948Z,27.12
2018-07-13T16:09:34.430Z,27.03
2018-07-13T16:12:04.117Z,26.77
2018-07-13T16:14:33.941Z,26.52
2018-07-13T16:17:03.792Z,26.27
2018-07-13T16:19:33.586Z,26.05
2018-07-13T16:22:03.544Z,25.94
2018-07-13T16:24:32.773Z,25.86
2018-07-13T16:27:01.433Z,25.75
2018-07-13T16:29:30.351Z,25.66
2018-07-13T16:31:59.254Z,25.46
2018-07-13T16:34:28.285Z,25.37
2018-07-13T16:36:57.002Z,25.23
2018-07-13T16:39:26.543Z,24.94
2018-07-13T16:41:55.283Z,24.84
2018-07-13T16:44:24.299Z,24.91
2018-07-13T16:46:53.046Z,24.91
2018-07-13T16:49:21.811Z,24.93
2018-07-13T16:51:51.327Z,24.95
2018-07-13T16:54:20.629Z,24.95
2018-07-13T16:56:49.674Z,24.98
2018-07-13T16:59:18.323Z,24.93
2018-07-13T17:01:47.055Z,24.89
2018-07-13T17:04:15.715Z,24.86
2018-07-13T17:06:44.671Z,24.77
2018-07-13T17:09:13.341Z,24.71
2018-07-13T17:11:42.797Z,24.65
2018-07-13T17:14:11.502Z,24.60
2018-07-13T17:16:40.141Z,24.55
2018-07-13T17:19:09.282Z,24.49
2018-07-13T17:21:37.949Z,24.44
2018-07-13T17:24:06.888Z,24.38
2018-07-13T17:26:35.598Z,24.36
2018-07-13T17:29:04.334Z,24.32
2018-07-13T17:31:33.152Z,24.27
2018-07-13T17:34:01.866Z,24.24
2018-07-13T17:36:31.126Z,24.21
2018-07-13T17:38:59.826Z,24.21
2018-07-13T17:41:28.459Z,24.19
2018-07-13T17:43:57.305Z,24.16
2018-07-13T17:46:26.070Z,24.13
2018-07-13T17:48:54.746Z,24.08
2018-07-13T17:51:23.548Z,24.03
2018-07-13T17:53:52.510Z,24.03
2018-07-13T17:56:21.233Z,24.01
2018-07-13T17:58:50.310Z,23.96
2018-07-13T18:01:19.101Z,23.94
2018-07-13T18:03:47.802Z,23.88
2018-07-13T18:06:16.602Z,23.85
2018-07-13T18:08:45.346Z,23.81
2018-07-13T18:11:14.021Z,23.74
2018-07-13T18:13:42.765Z,23.67
2018-07-13T18:16:11.709Z,23.61
2018-07-13T18:18:40.412Z,23.56
2018-07-13T18:21:09.140Z,23.49
2018-07-13T18:23:37.945Z,23.44
2018-07-13T18:26:06.634Z,23.38
2018-07-13T18:28:35.654Z,23.32
2018-07-13T18:31:06.295Z,23.29
2018-07-13T18:33:35.018Z,23.26
2018-07-13T18:36:03.664Z,23.22
2018-07-13T18:38:32.457Z,23.19
2018-07-13T18:41:01.678Z,23.16
2018-07-13T18:43:39.916Z,23.13
2018-07-13T18:46:09.923Z,23.14
2018-07-13T18:48:39.286Z,23.14
2018-07-13T18:51:08.438Z,23.17
2018-07-13T18:53:37.581Z,23.18
2018-07-13T18:56:06.358Z,23.19
2018-07-13T18:58:35.777Z,23.19
2018-07-13T19:01:04.633Z,23.16
2018-07-13T19:03:33.660Z,23.11
2018-07-13T19:06:02.470Z,23.08
2018-07-13T19:08:31.544Z,23.08
2018-07-13T19:11:00.544Z,23.06
2018-07-13T19:13:29.518Z,23.03
2018-07-13T19:15:58.542Z,23.00
2018-07-13T19:18:27.266Z,22.96
2018-07-13T19:20:56.154Z,22.93
2018-07-13T19:23:24.845Z,22.89
2018-07-13T19:25:53.897Z,22.88
2018-07-13T19:28:22.762Z,22.86
2018-07-13T19:30:54.095Z,22.82
2018-07-13T19:33:23.641Z,22.79
2018-07-13T19:35:52.416Z,22.73
2018-07-13T19:38:21.170Z,22.69
2018-07-13T19:40:49.877Z,22.65
2018-07-13T19:43:18.615Z,22.59
2018-07-13T19:45:48.047Z,22.55
2018-07-13T19:48:17.143Z,22.52
2018-07-13T19:50:46.396Z,22.49
2018-07-13T19:53:15.337Z,22.43
2018-07-13T19:55:44.314Z,22.41
2018-07-13T19:58:13.031Z,22.39
2018-07-13T20:00:41.893Z,22.38
2018-07-13T20:03:10.956Z,22.29
2018-07-13T20:05:39.648Z,22.12
2018-07-13T20:08:08.709Z,21.99
2018-07-13T20:10:37.536Z,21.87
2018-07-13T20:13:07.042Z,21.82
2018-07-13T20:15:35.826Z,21.78
2018-07-13T20:18:04.724Z,21.76
2018-07-13T20:20:33.773Z,21.80
2018-07-13T20:23:03.174Z,21.79
2018-07-13T20:25:32.299Z,21.81
2018-07-13T20:28:01.005Z,21.84
2018-07-13T20:30:29.898Z,21.85
2018-07-13T20:32:59.796Z,21.78
2018-07-13T20:35:29.212Z,21.80
2018-07-13T20:37:58.056Z,21.79
2018-07-13T20:40:26.750Z,21.74
2018-07-13T20:42:56.090Z,21.71
2018-07-13T20:45:24.908Z,21.72
2018-07-13T20:47:55.291Z,21.61
2018-07-13T20:50:24.046Z,21.58
2018-07-13T20:52:53.568Z,21.55
2018-07-13T20:55:24.265Z,21.49
2018-07-13T20:57:53.250Z,21.46
2018-07-13T21:00:22.347Z,21.38
2018-07-13T21:02:51.242Z,21.41
2018-07-13T21:05:19.969Z,21.37
2018-07-13T21:07:49.117Z,21.36
2018-07-13T21:10:18.448Z,21.37
2018-07-13T21:12:47.121Z,21.34
2018-07-13T21:15:17.592Z,21.28
2018-07-13T21:17:46.687Z,21.19
2018-07-13T21:20:16.049Z,21.23
2018-07-13T21:22:45.433Z,21.21
2018-07-13T21:25:14.217Z,21.24
2018-07-13T21:27:43.240Z,21.27
2018-07-13T21:30:16.866Z,21.33
2018-07-13T21:32:49.290Z,21.37
2018-07-13T21:35:27.688Z,21.36
2018-07-13T21:37:59.260Z,21.35
2018-07-13T21:40:28.134Z,21.33
2018-07-13T21:42:57.979Z,21.28
2018-07-13T21:45:27.482Z,21.22
2018-07-13T21:47:56.363Z,21.18
2018-07-13T21:50:25.919Z,21.18
2018-07-13T21:52:54.615Z,21.18
2018-07-13T21:55:27.927Z,21.13
2018-07-13T21:57:56.546Z,21.10
2018-07-13T22:00:25.651Z,21.11
2018-07-13T22:02:54.347Z,21.08
2018-07-13T22:05:24.682Z,21.04
2018-07-13T22:07:54.104Z,21.03
2018-07-13T22:10:22.962Z,20.99
2018-07-13T22:12:51.811Z,20.99
2018-07-13T22:15:20.596Z,20.99
2018-07-13T22:17:49.243Z,20.99
2018-07-13T22:20:18.271Z,21.01
2018-07-13T22:22:47.265Z,21.01
2018-07-13T22:25:16.131Z,20.99
2018-07-13T22:27:44.930Z,20.98
2018-07-13T22:30:13.608Z,20.97
2018-07-13T22:32:42.375Z,20.96
2018-07-13T22:35:11.316Z,20.91
2018-07-13T22:37:40.422Z,20.90
2018-07-13T22:40:09.609Z,20.92
2018-07-13T22:42:38.656Z,20.92
2018-07-13T22:45:07.410Z,20.91
2018-07-13T22:47:36.261Z,20.92
2018-07-13T22:50:05.252Z,20.91
2018-07-13T22:52:34.007Z,20.89
2018-07-13T22:55:02.772Z,20.87
2018-07-13T22:57:32.309Z,20.84
2018-07-13T23:00:01.422Z,20.83
2018-07-13T23:02:30.029Z,20.79
2018-07-13T23:04:59.255Z,20.72
2018-07-13T23:07:28.532Z,20.70
2018-07-13T23:09:57.294Z,20.70
2018-07-13T23:12:26.336Z,20.69
2018-07-13T23:14:55.026Z,20.66
2018-07-13T23:17:23.954Z,20.58
2018-07-13T23:19:52.716Z,20.51
2018-07-13T23:22:21.726Z,20.47
2018-07-13T23:24:50.515Z,20.43
2018-07-13T23:27:19.142Z,20.41
2018-07-13T23:29:47.780Z,20.40
2018-07-13T23:32:16.759Z,20.39
2018-07-13T23:34:45.535Z,20.35
2018-07-13T23:37:14.264Z,20.34
2018-07-13T23:39:43.154Z,20.36
2018-07-13T23:42:11.813Z,20.38
2018-07-13T23:44:40.474Z,20.40
2018-07-13T23:47:09.390Z,20.40
2018-07-13T23:49:38.311Z,20.38
2018-07-13T23:52:07.079Z,20.27
2018-07-13T23:54:36.106Z,20.24
2018-07-13T23:57:04.871Z,20.22
2018-07-13T23:59:33.598Z,20.06
